Time;durP1;ratioP1;P1;durP2;ratioP2;P2;SDS_P1;SDS_P2;PMS_P1;PMS_P2;Temp;Humidity;BMP_temperature;BMP_pressure;BME280_temperature;BME280_humidity;BME280_pressure;Samples;Min_cycle;Max_cycle;Signal;HPM_P1;HPM_P2
2022/11/25 00:00:27;;;;;;;31.13;4.87;;;;;;;13.12;100.00;100777.00;4986071;28;20049;-61
2022/11/25 00:02:52;;;;;;;30.63;4.47;;;;;;;13.16;100.00;100772.03;4989748;28;20039;-59
2022/11/25 00:05:18;;;;;;;27.93;4.67;;;;;;;13.10;100.00;100762.13;4981883;28;20035;-58
2022/11/25 00:07:43;;;;;;;29.10;5.20;;;;;;;13.11;100.00;100753.88;4988336;28;20300;-60
2022/11/25 00:10:09;;;;;;;38.55;4.70;;;;;;;13.29;100.00;100763.06;4990168;28;20034;-60
2022/11/25 00:12:34;;;;;;;34.57;4.87;;;;;;;13.01;100.00;100748.97;4989730;28;20055;-60
2022/11/25 00:14:59;;;;;;;21.57;4.57;;;;;;;13.30;100.00;100756.66;4987185;28;20054;-60
2022/11/25 00:17:25;;;;;;;33.53;5.57;;;;;;;13.28;100.00;100759.56;4988496;28;20035;-58
2022/11/25 00:19:50;;;;;;;25.20;5.90;;;;;;;13.00;100.00;100758.06;4989837;28;20073;-59
2022/11/25 00:22:16;;;;;;;19.27;4.57;;;;;;;12.97;100.00;100758.47;4986819;28;20126;-59
2022/11/25 00:24:41;;;;;;;16.77;4.83;;;;;;;13.54;100.00;100755.09;4987400;28;20030;-60
2022/11/25 00:27:08;;;;;;;25.70;5.05;;;;;;;13.17;100.00;100746.81;4984591;28;20039;-60
2022/11/25 00:29:33;;;;;;;25.55;4.30;;;;;;;13.32;100.00;100755.41;4993156;28;20099;-60
2022/11/25 00:31:59;;;;;;;24.48;4.93;;;;;;;14.31;100.00;100748.66;4990197;28;20039;-60
2022/11/25 00:34:25;;;;;;;32.72;4.93;;;;;;;13.14;100.00;100747.22;4986922;28;20102;-61
2022/11/25 00:36:52;;;;;;;27.33;5.43;;;;;;;13.34;100.00;100750.63;4988323;28;20034;-60
2022/11/25 00:39:18;;;;;;;28.92;7.40;;;;;;;12.89;100.00;100746.13;4990094;28;20073;-60
2022/11/25 00:44:36;;;;;;;22.40;4.47;;;;;;;13.26;100.00;100742.00;4986734;28;20269;-61
2022/11/25 00:47:11;;;;;;;28.83;6.10;;;;;;;13.23;100.00;100732.53;4991590;28;20263;-60
2022/11/25 00:49:43;;;;;;;38.07;5.87;;;;;;;13.07;100.00;100735.72;4990679;28;20319;-61
2022/11/25 00:52:13;;;;;;;23.67;5.93;;;;;;;12.89;100.00;100734.53;4990186;28;20273;-59
2022/11/25 00:54:38;;;;;;;21.70;4.77;;;;;;;13.47;100.00;100730.94;4989135;28;20291;-60
2022/11/25 00:57:04;;;;;;;22.93;5.67;;;;;;;13.50;100.00;100729.69;4989020;28;20281;-60
2022/11/25 00:59:29;;;;;;;23.48;5.22;;;;;;;13.51;100.00;100725.97;4984255;28;20039;-60
2022/11/25 01:01:57;;;;;;;25.90;4.70;;;;;;;12.99;100.00;100731.41;4988499;28;20034;-60
2022/11/25 01:04:23;;;;;;;25.08;5.25;;;;;;;13.57;100.00;100727.78;4988569;28;20727;-58
2022/11/25 01:06:49;;;;;;;24.40;4.00;;;;;;;13.40;100.00;100730.16;4983853;28;20031;-59
2022/11/25 01:09:14;;;;;;;26.67;5.10;;;;;;;13.69;100.00;100733.28;4986195;28;20067;-58
2022/11/25 01:11:40;;;;;;;19.77;4.78;;;;;;;13.59;100.00;100725.69;4991234;28;20261;-60
2022/11/25 01:14:08;;;;;;;22.05;4.45;;;;;;;13.41;100.00;100728.28;5008159;28;20098;-60
2022/11/25 01:16:33;;;;;;;22.90;5.40;;;;;;;13.68;100.00;100736.19;4989009;28;20039;-60
2022/11/25 01:18:59;;;;;;;26.05;5.15;;;;;;;13.27;100.00;100728.38;4989251;28;20065;-60
2022/11/25 01:21:27;;;;;;;31.42;4.93;;;;;;;13.33;100.00;100732.06;4966623;28;20081;-60
2022/11/25 01:23:53;;;;;;;26.90;5.00;;;;;;;13.59;100.00;100733.75;4991486;28;20031;-60
2022/11/25 01:26:21;;;;;;;37.77;5.10;;;;;;;13.40;100.00;100737.41;4989045;28;20034;-60
2022/11/25 01:28:48;;;;;;;22.83;4.30;;;;;;;13.57;100.00;100730.47;4991553;28;20038;-59
2022/11/25 01:31:19;;;;;;;30.77;4.87;;;;;;;13.52;100.00;100732.19;4994350;28;20261;-60
2022/11/25 01:33:46;;;;;;;24.53;4.70;;;;;;;13.70;100.00;100745.66;4979166;28;20273;-61
2022/11/25 01:36:16;;;;;;;19.60;5.00;;;;;;;13.79;100.00;100742.72;4989653;28;20260;-61
2022/11/25 01:38:44;;;;;;;25.70;4.30;;;;;;;14.23;100.00;100742.72;4984576;28;20280;-60
2022/11/25 01:41:13;;;;;;;22.80;4.60;;;;;;;14.34;100.00;100742.00;4984570;28;20264;-60
2022/11/25 01:43:39;;;;;;;30.90;5.63;;;;;;;14.32;100.00;100744.91;4963750;28;20288;-59
2022/11/25 01:46:57;;;;;;;33.83;4.67;;;;;;;14.52;100.00;100751.97;4986292;28;20277;-60
2022/11/25 01:49:43;;;;;;;27.07;4.03;;;;;;;14.25;100.00;100746.03;4960543;28;20287;-61
2022/11/25 01:52:42;;;;;;;29.80;5.50;;;;;;;14.75;100.00;100754.00;4996761;28;20307;-59
2022/11/25 01:55:15;;;;;;;19.57;4.20;;;;;;;14.33;100.00;100749.25;4971613;28;20321;-60
2022/11/25 01:57:46;;;;;;;28.27;4.50;;;;;;;14.29;100.00;100758.81;4949495;29;20286;-61
2022/11/25 02:00:12;;;;;;;22.23;5.53;;;;;;;14.16;100.00;100750.88;4947699;29;20291;-59
2022/11/25 02:02:46;;;;;;;30.10;5.70;;;;;;;14.32;100.00;100758.38;4951687;28;20337;-61
2022/11/25 02:05:16;;;;;;;24.03;6.13;;;;;;;14.15;100.00;100760.81;4952926;29;20267;-60
2022/11/25 02:07:44;;;;;;;30.87;4.83;;;;;;;14.22;100.00;100781.44;4949600;29;20328;-60
2022/11/25 02:10:15;;;;;;;29.73;5.20;;;;;;;14.06;100.00;100770.19;4948671;29;20263;-60
2022/11/25 02:12:44;;;;;;;32.50;4.80;;;;;;;14.11;100.00;100778.44;4948803;29;20361;-60
2022/11/25 02:15:11;;;;;;;28.20;4.90;;;;;;;13.73;100.00;100777.50;4947154;29;20270;-57
2022/11/25 02:17:37;;;;;;;29.37;4.37;;;;;;;14.43;100.00;100789.09;4950650;29;20290;-58
2022/11/25 02:20:08;;;;;;;31.05;5.95;;;;;;;13.93;100.00;100802.56;4942846;28;20277;-55
2022/11/25 02:22:45;;;;;;;42.43;6.50;;;;;;;13.95;100.00;100808.56;4953648;29;20061;-56
2022/11/25 02:25:25;;;;;;;49.20;7.50;;;;;;;14.56;100.00;100800.78;4951782;29;20305;-57
2022/11/25 02:27:59;;;;;;;19.43;4.67;;;;;;;14.00;100.00;100798.78;4952723;29;20346;-57
2022/11/25 02:30:24;;;;;;;22.93;3.57;;;;;;;13.85;100.00;100807.19;4954537;29;20270;-56
2022/11/25 02:32:50;;;;;;;26.27;4.65;;;;;;;13.58;100.00;100793.91;4934714;29;20280;-55
2022/11/25 02:35:35;;;;;;;39.80;5.37;;;;;;;13.78;100.00;100784.88;4952788;29;20044;-56
2022/11/25 02:38:06;;;;;;;24.53;4.93;;;;;;;13.31;100.00;100783.28;4951787;29;20052;-52
2022/11/25 02:40:39;;;;;;;36.50;5.67;;;;;;;13.45;100.00;100775.19;4953463;29;20310;-53
2022/11/25 02:43:05;;;;;;;24.90;7.10;;;;;;;14.03;100.00;100773.31;4954696;29;20274;-54
2022/11/25 02:45:54;;;;;;;25.57;4.87;;;;;;;14.03;100.00;100789.44;4953355;29;20324;-50
2022/11/25 02:48:20;;;;;;;26.10;5.23;;;;;;;14.37;100.00;100781.91;4952402;29;20101;-56
2022/11/25 02:50:47;;;;;;;25.65;5.43;;;;;;;13.98;100.00;100795.50;4952139;29;20262;-55
2022/11/25 02:53:13;;;;;;;;;;;;;;;14.43;100.00;100791.78;4951917;29;20040;-56
2022/11/25 02:55:39;;;;;;;29.97;5.03;;;;;;;14.67;100.00;100793.84;4958892;28;19978;-56
2022/11/25 02:58:05;;;;;;;28.05;4.03;;;;;;;13.61;100.00;100785.44;4956556;28;20103;-54
2022/11/25 03:00:30;;;;;;;19.17;4.20;;;;;;;13.38;100.00;100790.47;4954405;28;20055;-56
2022/11/25 03:02:55;;;;;;;21.13;4.57;;;;;;;13.14;100.00;100803.63;4955302;29;20046;-57
2022/11/25 03:05:21;;;;;;;28.90;3.83;;;;;;;14.00;100.00;100817.63;4956825;28;20035;-52
2022/11/25 03:07:47;;;;;;;41.95;4.47;;;;;;;13.52;100.00;100818.16;4955197;29;20028;-55
2022/11/25 03:10:16;;;;;;;24.93;3.90;;;;;;;13.87;100.00;100805.09;4954175;28;20035;-56
2022/11/25 03:12:42;;;;;;;21.47;5.03;;;;;;;14.08;100.00;100786.09;4954163;28;20352;-56
2022/11/25 03:15:08;;;;;;;16.05;3.97;;;;;;;14.55;100.00;100761.47;4954814;29;20337;-54
2022/11/25 03:17:34;;;;;;;18.45;4.82;;;;;;;14.54;100.00;100757.13;4954089;29;20059;-56
2022/11/25 03:19:59;;;;;;;20.53;3.60;;;;;;;14.10;100.00;100759.81;4956713;28;20067;-56
2022/11/25 03:22:25;;;;;;;21.03;4.47;;;;;;;14.88;100.00;100773.72;4954136;29;20293;-56
2022/11/25 03:24:51;;;;;;;18.27;3.53;;;;;;;14.44;100.00;100771.09;4954094;28;20051;-55
2022/11/25 03:27:18;;;;;;;19.00;4.00;;;;;;;14.24;100.00;100799.00;4953395;29;20055;-54
2022/11/25 03:29:44;;;;;;;17.40;2.83;;;;;;;14.76;100.00;100801.41;4954283;28;20278;-55
2022/11/25 03:32:09;;;;;;;18.50;3.25;;;;;;;14.38;100.00;100802.41;4954223;29;20040;-56
2022/11/25 03:34:36;;;;;;;20.73;3.75;;;;;;;15.13;100.00;100799.72;4955873;28;20026;-54
2022/11/25 03:37:02;;;;;;;22.17;3.53;;;;;;;14.27;100.00;100808.47;4953894;28;20040;-54
2022/11/25 03:39:29;;;;;;;15.43;2.67;;;;;;;14.95;100.00;100803.28;4955685;28;20070;-56
2022/11/25 03:41:54;;;;;;;10.93;2.83;;;;;;;14.51;100.00;100814.06;4954695;29;20280;-57
2022/11/25 03:44:20;;;;;;;9.70;2.40;;;;;;;14.71;100.00;100817.41;4959026;28;20037;-55
2022/11/25 03:46:46;;;;;;;12.70;2.30;;;;;;;14.14;100.00;100815.63;4953718;29;20153;-60
2022/11/25 03:49:11;;;;;;;14.73;2.70;;;;;;;14.39;100.00;100814.81;4956111;28;20046;-54
2022/11/25 03:51:37;;;;;;;18.52;2.63;;;;;;;14.47;100.00;100825.28;4955558;28;20044;-54
2022/11/25 03:54:04;;;;;;;17.73;2.80;;;;;;;14.03;100.00;100829.78;4953822;29;20046;-57
2022/11/25 03:56:43;;;;;;;11.80;2.63;;;;;;;14.33;100.00;100839.91;5058224;28;20065;-54
2022/11/25 03:59:08;;;;;;;24.93;3.53;;;;;;;14.20;100.00;100830.88;5057801;28;20281;-59
2022/11/25 04:01:34;;;;;;;15.63;2.50;;;;;;;15.14;100.00;100828.31;5059094;28;20089;-57
2022/11/25 04:04:00;;;;;;;15.35;2.90;;;;;;;14.10;100.00;100835.94;5054287;28;20033;-58
2022/11/25 04:06:26;;;;;;;17.38;3.08;;;;;;;15.07;100.00;100824.88;5059760;28;20044;-57
2022/11/25 04:08:52;;;;;;;15.02;3.88;;;;;;;14.56;100.00;100823.13;5059507;28;20043;-56
2022/11/25 04:11:19;;;;;;;18.53;4.27;;;;;;;14.95;100.00;100820.25;5059077;28;20172;-58
2022/11/25 04:13:48;;;;;;;14.90;2.90;;;;;;;15.02;100.00;100821.00;5059896;28;20285;-56
2022/11/25 04:16:20;;;;;;;14.75;3.03;;;;;;;15.44;100.00;100835.59;5055536;28;20279;-59
2022/11/25 04:18:45;;;;;;;14.60;3.53;;;;;;;15.29;100.00;100834.13;5078260;28;20037;-59
2022/11/25 04:21:11;;;;;;;11.93;2.60;;;;;;;14.84;100.00;100835.28;5057476;28;20271;-58
2022/11/25 04:23:37;;;;;;;15.50;2.70;;;;;;;14.99;100.00;100847.56;5056619;28;20032;-57
2022/11/25 04:26:06;;;;;;;14.00;2.87;;;;;;;14.79;100.00;100845.09;5062190;28;20021;-57
2022/11/25 04:28:36;;;;;;;12.93;3.27;;;;;;;15.10;100.00;100852.16;5057103;28;20301;-58
2022/11/25 04:31:06;;;;;;;14.13;3.50;;;;;;;15.87;100.00;100864.22;5038685;28;20278;-57
2022/11/25 04:33:34;;;;;;;22.63;2.60;;;;;;;14.88;100.00;100866.09;5059327;28;20294;-56
2022/11/25 04:35:59;;;;;;;14.23;3.22;;;;;;;15.19;100.00;100871.56;5050862;28;20278;-57
2022/11/25 04:38:25;;;;;;;17.23;3.58;;;;;;;14.94;100.00;100867.06;5063190;28;20047;-57
2022/11/25 04:40:51;;;;;;;22.33;3.33;;;;;;;14.73;100.00;100882.59;5061191;28;20033;-55
2022/11/25 04:43:19;;;;;;;15.27;3.43;;;;;;;14.04;100.00;100874.44;5055222;28;20026;-55
2022/11/25 04:45:51;;;;;;;13.87;3.40;;;;;;;14.41;100.00;100888.03;5053231;28;20331;-59
2022/11/25 04:48:17;;;;;;;14.47;2.70;;;;;;;15.33;100.00;100889.22;5039480;28;20262;-57
2022/11/25 04:50:43;;;;;;;20.70;2.72;;;;;;;15.24;100.00;100892.44;5053293;28;20289;-57
2022/11/25 04:53:11;;;;;;;14.20;3.20;;;;;;;15.18;100.00;100883.38;5052420;28;20030;-56
2022/11/25 04:55:38;;;;;;;;;;;;;;;15.29;100.00;100884.50;5014705;28;20266;-57
2022/11/25 04:58:10;;;;;;;15.77;2.10;;;;;;;15.22;100.00;100886.44;4968715;28;19922;-57
2022/11/25 05:00:38;;;;;;;13.00;2.40;;;;;;;14.97;100.00;100888.16;4967262;28;20269;-55
2022/11/25 05:03:05;;;;;;;12.23;2.37;;;;;;;13.84;100.00;100891.56;4968456;29;20312;-56
2022/11/25 05:05:33;;;;;;;9.50;2.30;;;;;;;14.37;100.00;100902.97;4966304;28;20288;-59
2022/11/25 05:07:59;;;;;;;9.13;1.70;;;;;;;14.44;100.00;100898.34;4969532;29;20647;-54
2022/11/25 05:10:24;;;;;;;14.75;2.60;;;;;;;14.44;100.00;100898.34;4951145;28;20063;-56
2022/11/25 05:12:50;;;;;;;11.00;2.33;;;;;;;14.38;100.00;100910.00;4966586;28;20035;-58
2022/11/25 05:15:19;;;;;;;8.87;2.93;;;;;;;14.26;100.00;100909.88;4970595;28;20030;-54
2022/11/25 05:17:46;;;;;;;15.40;2.90;;;;;;;14.15;100.00;100908.72;4950365;29;20288;-56
2022/11/25 05:20:12;;;;;;;;;;;;;;;14.17;100.00;100922.78;4966526;28;20277;-58
2022/11/25 05:22:38;;;;;;;27.50;9.23;;;;;;;13.81;100.00;100926.91;4967184;28;19977;-57
2022/11/25 05:25:06;;;;;;;23.33;9.30;;;;;;;13.45;100.00;100922.94;4966170;28;20031;-57
2022/11/25 05:27:37;;;;;;;28.00;9.27;;;;;;;14.53;100.00;100920.44;4970952;29;20269;-56
2022/11/25 05:30:08;;;;;;;26.70;8.30;;;;;;;14.19;100.00;100912.63;4971681;28;20261;-57
2022/11/25 05:32:34;;;;;;;18.48;6.45;;;;;;;14.24;100.00;100916.50;4966857;28;20338;-57
2022/11/25 05:35:08;;;;;;;19.70;6.40;;;;;;;13.50;100.00;100920.44;4970924;28;20031;-57
2022/11/25 05:37:38;;;;;;;18.97;5.77;;;;;;;14.95;100.00;100911.78;4966963;28;20282;-54
2022/11/25 05:40:05;;;;;;;20.17;6.63;;;;;;;13.93;100.00;100921.66;4966863;28;20269;-55
2022/11/25 05:42:36;;;;;;;20.97;7.97;;;;;;;13.90;100.00;100917.56;4966069;28;20035;-57
2022/11/25 05:45:04;;;;;;;38.73;10.43;;;;;;;13.82;100.00;100936.63;4969240;28;20300;-58
2022/11/25 05:47:30;;;;;;;24.00;8.50;;;;;;;13.65;100.00;100933.59;4967819;28;20274;-58
2022/11/25 05:49:57;;;;;;;;;;;;;;;14.05;100.00;100940.63;4970653;28;20356;-57
2022/11/25 05:52:22;;;;;;;24.00;7.50;;;;;;;13.73;100.00;100938.75;4968787;28;19914;-56
2022/11/25 05:54:53;;;;;;;18.60;6.27;;;;;;;13.95;100.00;100940.28;4936254;28;1027622;-56
2022/11/25 05:57:19;;;;;;;24.13;8.93;;;;;;;13.98;100.00;100945.22;4990483;28;20039;-57
2022/11/25 05:59:48;;;;;;;26.73;7.72;;;;;;;13.50;100.00;100941.13;4990703;28;20055;-55
2022/11/25 06:02:38;;;;;;;21.73;7.30;;;;;;;13.66;100.00;100945.19;4986373;28;20065;-55
2022/11/25 06:05:05;;;;;;;28.33;5.87;;;;;;;13.57;100.00;100953.47;4991609;28;20280;-55
2022/11/25 06:07:31;;;;;;;16.50;5.47;;;;;;;14.44;100.00;100960.25;4994522;28;20343;-54
2022/11/25 06:09:57;;;;;;;13.40;3.50;;;;;;;13.92;100.00;100954.97;4988659;28;20043;-57
2022/11/25 06:12:22;;;;;;;26.13;8.20;;;;;;;13.46;100.00;100956.84;4988379;28;20035;-56
2022/11/25 06:14:49;;;;;;;21.20;6.53;;;;;;;13.88;100.00;100956.44;4976213;28;20031;-57
2022/11/25 06:17:16;;;;;;;35.55;10.88;;;;;;;13.27;100.00;100947.78;4984841;28;20038;-54
2022/11/25 06:19:50;;;;;;;34.73;11.10;;;;;;;13.85;100.00;100951.50;5016955;28;20058;-55
2022/11/25 06:22:16;;;;;;;26.58;9.10;;;;;;;13.43;100.00;100959.94;5006044;28;20281;-54
2022/11/25 06:24:42;;;;;;;27.98;9.68;;;;;;;14.12;100.00;100962.94;5001255;28;20054;-56
2022/11/25 06:27:08;;;;;;;30.70;9.80;;;;;;;13.27;100.00;100956.66;5005505;28;20023;-56
2022/11/25 06:29:35;;;;;;;29.23;10.38;;;;;;;13.27;100.00;100971.94;5006594;28;20066;-55
2022/11/25 06:32:01;;;;;;;28.70;8.87;;;;;;;13.62;100.00;100960.91;4990408;28;20042;-56
2022/11/25 06:34:35;;;;;;;24.97;7.80;;;;;;;14.00;100.00;100972.72;5006050;28;20046;-54
2022/11/25 06:37:03;;;;;;;23.23;8.48;;;;;;;12.90;100.00;100972.38;5003779;28;20277;-55
2022/11/25 06:39:29;;;;;;;24.73;8.25;;;;;;;13.31;100.00;100979.34;4985946;28;20027;-57
2022/11/25 06:41:55;;;;;;;26.93;7.37;;;;;;;13.36;100.00;100983.25;4990115;28;20061;-57
2022/11/25 06:44:20;;;;;;;20.90;4.70;;;;;;;13.41;100.00;100992.34;4987644;28;20046;-57
2022/11/25 06:46:46;;;;;;;19.77;5.30;;;;;;;13.03;100.00;100993.88;4990074;28;20050;-55
2022/11/25 06:49:11;;;;;;;21.93;6.13;;;;;;;13.06;100.00;100998.00;4987487;28;20065;-57
2022/11/25 06:51:37;;;;;;;20.42;5.30;;;;;;;13.09;100.00;101015.53;4987073;28;20042;-57
2022/11/25 06:54:02;;;;;;;25.00;5.73;;;;;;;13.30;100.00;101012.63;4991927;28;20055;-56
2022/11/25 06:56:28;;;;;;;15.77;4.35;;;;;;;13.09;100.00;101010.16;4991007;28;20193;-57
2022/11/25 06:58:54;;;;;;;16.23;6.27;;;;;;;12.79;100.00;101014.09;4991395;28;20039;-53
2022/11/25 07:01:21;;;;;;;29.75;7.72;;;;;;;12.85;100.00;101015.97;4992493;28;20031;-56
2022/11/25 07:03:49;;;;;;;34.60;11.18;;;;;;;13.69;100.00;101025.38;4988915;28;20094;-58
2022/11/25 07:06:17;;;;;;;51.60;15.73;;;;;;;12.80;100.00;101031.03;4987162;28;20125;-58
2022/11/25 07:08:43;;;;;;;25.30;10.68;;;;;;;12.90;100.00;101028.75;4991788;28;20273;-55
2022/11/25 07:11:24;;;;;;;26.05;9.77;;;;;;;13.00;100.00;101022.97;4989320;28;20050;-54
2022/11/25 07:13:51;;;;;;;25.35;8.93;;;;;;;12.97;100.00;101034.97;4988759;28;20042;-55
2022/11/25 07:16:17;;;;;;;32.80;11.43;;;;;;;12.61;100.00;101033.50;4990432;28;20043;-53
2022/11/25 07:18:43;;;;;;;33.88;12.90;;;;;;;13.01;100.00;101036.22;5005584;28;20041;-57
2022/11/25 07:21:12;;;;;;;41.87;16.47;;;;;;;12.99;100.00;101043.66;4989118;28;20050;-55
2022/11/25 07:23:38;;;;;;;41.10;14.40;;;;;;;12.87;100.00;101043.44;4990068;28;20281;-55
2022/11/25 07:26:10;;;;;;;38.08;14.65;;;;;;;13.59;100.00;101050.81;4993004;28;20038;-57
2022/11/25 07:28:37;;;;;;;36.13;11.05;;;;;;;12.80;100.00;101052.50;4984425;28;20081;-54
2022/11/25 07:31:16;;;;;;;;;;;;;;;13.40;100.00;101054.38;4991960;28;20031;-56
2022/11/25 07:33:43;;;;;;;25.83;6.18;;;;;;;12.66;100.00;101062.41;4991371;28;19940;-53
2022/11/25 07:36:11;;;;;;;21.00;5.95;;;;;;;12.73;100.00;101058.69;4993218;28;20043;-57
2022/11/25 07:38:38;;;;;;;22.35;6.18;;;;;;;13.10;100.00;101063.69;4990220;28;20026;-57
2022/11/25 07:41:05;;;;;;;27.92;10.27;;;;;;;12.73;100.00;101082.00;4989884;28;20109;-54
2022/11/25 07:43:32;;;;;;;46.10;16.00;;;;;;;12.67;100.00;101075.59;4990151;28;20053;-55
2022/11/25 07:46:20;;;;;;;43.10;16.88;;;;;;;12.89;100.00;101078.09;5013436;28;20081;-51
2022/11/25 07:48:46;;;;;;;36.90;13.60;;;;;;;13.11;100.00;101091.34;4987413;28;20043;-56
2022/11/25 07:51:16;;;;;;;22.42;9.40;;;;;;;13.38;100.00;101094.00;4989514;28;20061;-54
2022/11/25 07:53:42;;;;;;;20.80;8.27;;;;;;;12.98;100.00;101093.00;4998844;28;20035;-55
2022/11/25 07:56:07;;;;;;;18.77;6.70;;;;;;;13.13;100.00;101097.31;4983423;28;20115;-59
2022/11/25 07:58:33;;;;;;;16.77;6.93;;;;;;;13.25;100.00;101101.06;4971372;28;20051;-53
2022/11/25 08:01:03;;;;;;;17.43;8.50;;;;;;;12.61;100.00;101098.72;4971374;29;20039;-57
2022/11/25 08:03:28;;;;;;;23.85;10.15;;;;;;;12.72;100.00;101107.19;4969448;28;20039;-58
2022/11/25 08:05:53;;;;;;;21.00;8.17;;;;;;;12.76;100.00;101103.91;4969852;28;20067;-56
2022/11/25 08:08:19;;;;;;;27.77;10.37;;;;;;;13.22;100.00;101109.53;4968646;28;20039;-57
2022/11/25 08:10:44;;;;;;;29.37;9.37;;;;;;;12.55;100.00;101112.09;4971839;28;20124;-55
2022/11/25 08:13:10;;;;;;;18.35;6.78;;;;;;;13.10;100.00;101114.69;4971808;28;20062;-56
2022/11/25 08:15:35;;;;;;;17.67;4.67;;;;;;;13.79;100.00;101119.03;4970130;28;20030;-56
2022/11/25 08:18:01;;;;;;;14.40;4.80;;;;;;;13.10;100.00;101127.28;4970064;28;20031;-54
2022/11/25 08:20:27;;;;;;;17.20;4.20;;;;;;;13.48;100.00;101134.75;4970627;28;20126;-54
2022/11/25 08:22:53;;;;;;;17.73;4.80;;;;;;;14.18;100.00;101131.53;4970991;28;20086;-56
2022/11/25 08:25:18;;;;;;;14.00;4.30;;;;;;;14.33;100.00;101135.81;4969984;28;20074;-56
2022/11/25 08:27:44;;;;;;;9.00;3.20;;;;;;;14.95;100.00;101132.59;4969729;28;20023;-57
2022/11/25 08:30:09;;;;;;;16.90;3.37;;;;;;;13.56;100.00;101142.59;4972079;28;20055;-55
2022/11/25 08:32:38;;;;;;;13.07;3.65;;;;;;;13.50;100.00;101148.81;4969949;29;20106;-57
2022/11/25 08:35:05;;;;;;;11.98;3.53;;;;;;;14.51;100.00;101142.34;4971000;28;20039;-57
2022/11/25 08:37:32;;;;;;;9.02;3.45;;;;;;;13.85;100.00;101148.59;4969164;28;20035;-57
2022/11/25 08:39:57;;;;;;;9.80;4.00;;;;;;;13.08;100.00;101143.59;4969899;28;20055;-53
2022/11/25 08:42:23;;;;;;;15.85;4.13;;;;;;;13.77;100.00;101148.78;4969929;28;20280;-56
2022/11/25 08:44:54;;;;;;;11.73;4.90;;;;;;;13.62;100.00;101159.75;4966849;28;20065;-57
2022/11/25 08:47:20;;;;;;;15.90;4.37;;;;;;;13.37;100.00;101160.34;4970565;29;20042;-56
2022/11/25 08:49:49;;;;;;;17.70;5.28;;;;;;;13.41;100.00;101161.59;4967195;29;20292;-57
2022/11/25 08:52:15;;;;;;;11.50;4.20;;;;;;;13.51;100.00;101165.78;4970856;28;20065;-55
2022/11/25 08:54:40;;;;;;;16.23;4.73;;;;;;;13.86;100.00;101169.06;4968479;28;20361;-56
2022/11/25 08:57:06;;;;;;;13.30;3.90;;;;;;;13.90;100.00;101178.34;4994196;28;20031;-58
2022/11/25 08:59:31;;;;;;;8.07;3.50;;;;;;;13.99;100.00;101178.97;4987534;28;20102;-55
2022/11/25 09:01:57;;;;;;;15.03;3.97;;;;;;;13.96;100.00;101178.53;4990954;28;20042;-54
2022/11/25 09:04:22;;;;;;;12.73;3.75;;;;;;;14.15;100.00;101185.75;4989236;28;20086;-56
2022/11/25 09:06:47;;;;;;;21.73;4.07;;;;;;;14.88;100.00;101191.91;4986709;28;20039;-58
2022/11/25 09:09:13;;;;;;;12.80;3.83;;;;;;;15.48;100.00;101192.56;4990088;28;20114;-56
2022/11/25 09:11:39;;;;;;;12.65;3.42;;;;;;;16.76;100.00;101188.53;4989935;28;20031;-57
2022/11/25 09:14:04;;;;;;;17.63;3.95;;;;;;;16.85;100.00;101192.56;4989526;28;20070;-55
2022/11/25 09:16:30;;;;;;;13.47;3.00;;;;;;;16.67;100.00;101204.22;4988778;28;20038;-57
2022/11/25 09:18:55;;;;;;;9.73;3.80;;;;;;;16.81;100.00;101212.97;4988533;28;20038;-59
2022/11/25 09:21:21;;;;;;;12.87;3.33;;;;;;;17.00;100.00;101210.28;4986921;28;20042;-57
2022/11/25 09:23:49;;;;;;;10.65;3.63;;;;;;;17.26;100.00;101213.63;4989185;28;20034;-54
2022/11/25 09:26:20;;;;;;;14.33;2.70;;;;;;;17.41;100.00;101213.19;4989117;28;20043;-59
2022/11/25 09:28:46;;;;;;;11.57;2.83;;;;;;;17.76;100.00;101228.63;4987560;28;20276;-57
2022/11/25 09:31:12;;;;;;;8.75;2.95;;;;;;;17.91;100.00;101233.59;4991604;28;20272;-57
2022/11/25 09:33:37;;;;;;;12.70;3.60;;;;;;;18.30;100.00;101238.53;4989895;28;20046;-56
2022/11/25 09:36:04;;;;;;;8.87;4.13;;;;;;;18.32;100.00;101250.75;4987712;28;20030;-58
2022/11/25 09:38:30;;;;;;;15.37;4.10;;;;;;;18.57;100.00;101238.03;4988531;28;20035;-58
2022/11/25 09:48:13;;;;;;;12.67;3.60;;;;;;;19.51;100.00;101252.25;4969596;28;20041;-59
2022/11/25 09:50:58;;;;;;;9.27;4.10;;;;;;;20.05;100.00;101250.94;4987949;28;20042;-59
2022/11/25 09:53:43;;;;;;;10.97;3.70;;;;;;;19.73;100.00;101267.78;4987432;28;20057;-57
2022/11/25 09:56:26;;;;;;;10.40;3.70;;;;;;;18.88;100.00;101271.13;4984711;28;20114;-57
2022/11/25 09:59:01;;;;;;;6.07;2.83;;;;;;;18.67;100.00;101268.00;4987498;28;20134;-59
2022/11/25 10:01:29;;;;;;;13.30;4.40;;;;;;;19.92;100.00;101274.66;4987358;28;20062;-58
2022/11/25 10:04:08;;;;;;;13.00;3.23;;;;;;;19.54;100.00;101273.47;4986559;28;20031;-59
2022/11/25 10:06:46;;;;;;;7.90;3.23;;;;;;;20.17;100.00;101270.66;4987443;28;20046;-59
2022/11/25 10:09:14;;;;;;;11.63;3.53;;;;;;;20.89;100.00;101287.13;4988784;28;20030;-58
2022/11/25 10:12:09;;;;;;;8.17;3.00;;;;;;;20.73;100.00;101283.34;4989427;28;20039;-57
2022/11/25 10:14:50;;;;;;;11.43;3.77;;;;;;;21.43;100.00;101287.38;5002173;28;20057;-59
2022/11/25 10:17:48;;;;;;;10.67;3.70;;;;;;;22.02;100.00;101291.16;4987218;28;20035;-56
2022/11/25 10:20:21;;;;;;;12.48;3.70;;;;;;;21.69;100.00;101303.97;4985044;28;20027;-58
2022/11/25 10:22:52;;;;;;;9.30;3.03;;;;;;;20.91;100.00;101305.88;4985903;28;20053;-56
2022/11/25 10:25:25;;;;;;;12.17;3.20;;;;;;;21.41;100.00;101314.84;4998847;28;20039;-61
2022/11/25 10:27:58;;;;;;;9.97;3.13;;;;;;;22.34;100.00;101307.44;4990262;28;20034;-59
2022/11/25 10:30:34;;;;;;;12.40;3.73;;;;;;;22.12;93.56;101318.44;4992638;28;20169;-59
2022/11/25 10:33:16;;;;;;;8.80;3.40;;;;;;;23.03;97.42;101323.81;4991368;28;20035;-61
2022/11/25 10:35:56;;;;;;;10.80;3.57;;;;;;;22.71;97.19;101319.34;4990802;28;20058;-60
2022/11/25 10:38:28;;;;;;;11.57;3.10;;;;;;;21.72;100.00;101317.06;4990138;28;20031;-60
2022/11/25 10:40:54;;;;;;;9.23;2.90;;;;;;;20.81;100.00;101319.34;4991831;28;20047;-58
2022/11/25 10:43:21;;;;;;;9.87;2.97;;;;;;;21.90;100.00;101327.53;4989950;28;20059;-59
2022/11/25 10:46:02;;;;;;;10.13;2.83;;;;;;;22.14;100.00;101324.44;4990911;28;20069;-60
2022/11/25 10:48:44;;;;;;;8.87;3.47;;;;;;;22.17;94.21;101325.84;4993177;28;20041;-60
2022/11/25 10:51:31;;;;;;;10.03;3.00;;;;;;;21.47;100.00;101332.84;4989467;28;20054;-60
2022/11/25 10:54:12;;;;;;;10.48;3.15;;;;;;;21.84;95.69;101336.75;4989533;28;20046;-61
2022/11/25 10:56:50;;;;;;;9.60;3.03;;;;;;;20.67;100.00;101335.19;4989856;28;20165;-60
2022/11/25 10:59:23;;;;;;;9.57;2.97;;;;;;;21.57;99.56;101337.59;4991133;28;20049;-60
2022/11/25 11:02:05;;;;;;;10.27;2.77;;;;;;;22.27;95.40;101342.25;5007496;28;20035;-60
2022/11/25 11:04:32;;;;;;;13.93;3.77;;;;;;;22.52;83.34;101351.72;4988098;28;20039;-60
2022/11/25 11:07:07;;;;;;;8.40;3.13;;;;;;;23.62;82.15;101372.81;4991907;28;20031;-61
2022/11/25 11:09:39;;;;;;;12.20;3.30;;;;;;;22.22;85.32;101355.81;4989451;28;20035;-60
2022/11/25 11:12:14;;;;;;;12.03;2.80;;;;;;;22.16;84.81;101360.44;4991380;28;20034;-59
2022/11/25 11:14:40;;;;;;;10.30;2.97;;;;;;;21.76;89.74;101353.56;4990122;28;20049;-61
2022/11/25 11:17:23;;;;;;;11.48;2.22;;;;;;;21.65;86.23;101370.88;4987159;28;20059;-60
2022/11/25 11:20:11;;;;;;;14.73;3.20;;;;;;;22.88;80.54;101375.59;4987518;28;20039;-62
2022/11/25 11:22:50;;;;;;;11.93;2.90;;;;;;;22.26;84.52;101388.81;4993096;28;20060;-60
2022/11/25 11:25:18;;;;;;;12.93;3.63;;;;;;;23.29;77.57;101394.84;4990561;28;20047;-60
2022/11/25 11:27:45;;;;;;;11.07;3.13;;;;;;;23.30;77.82;101390.25;4990584;28;20027;-61
2022/11/25 11:30:19;;;;;;;5.93;2.30;;;;;;;23.79;74.23;101386.25;4990550;28;20102;-60